Time;durP1;ratioP1;P1;durP2;ratioP2;P2;SDS_P1;SDS_P2;PMS_P1;PMS_P2;Temp;Humidity;BMP_temperature;BMP_pressure;BME280_temperature;BME280_humidity;BME280_pressure;Samples;Min_cycle;Max_cycle;Signal;HPM_P1;HPM_P2
2022/07/25 00:01:09;;;;;;;7.60;7.00;;;22.20;99.90;;;;;;5074774;28;20577;-76
2022/07/25 00:03:35;;;;;;;6.57;6.10;;;22.20;99.90;;;;;;5074829;28;20664;-75
2022/07/25 00:06:02;;;;;;;7.40;6.70;;;22.30;99.90;;;;;;5078310;28;20633;-73
2022/07/25 00:08:28;;;;;;;7.37;6.90;;;22.20;99.90;;;;;;5083980;28;20632;-73
2022/07/25 00:10:54;;;;;;;7.30;6.70;;;22.10;99.90;;;;;;5083318;28;20749;-77
2022/07/25 00:13:21;;;;;;;7.33;6.30;;;22.00;99.90;;;;;;5081065;28;20947;-74
2022/07/25 00:15:47;;;;;;;6.70;6.30;;;22.00;99.90;;;;;;5083610;28;20922;-74
2022/07/25 00:18:14;;;;;;;7.60;7.00;;;22.10;99.90;;;;;;5090973;28;20656;-76
2022/07/25 00:20:40;;;;;;;8.47;7.77;;;22.10;99.90;;;;;;5081717;28;20645;-74
2022/07/25 00:23:07;;;;;;;8.40;7.80;;;22.10;99.90;;;;;;5087704;28;20593;-75
2022/07/25 00:25:33;;;;;;;13.37;6.87;;;22.10;99.90;;;;;;5080332;28;20626;-75
2022/07/25 00:28:00;;;;;;;8.50;7.73;;;22.10;99.90;;;;;;5081072;28;21168;-75
2022/07/25 00:30:26;;;;;;;7.50;7.00;;;22.10;99.90;;;;;;5076642;28;20570;-77
2022/07/25 00:32:53;;;;;;;7.30;6.70;;;22.20;99.90;;;;;;5078999;28;20602;-76
2022/07/25 00:35:19;;;;;;;6.10;5.80;;;22.20;99.90;;;;;;5076569;28;20635;-77
2022/07/25 00:37:46;;;;;;;7.97;7.27;;;22.20;99.90;;;;;;5075862;28;20992;-76
2022/07/25 00:40:12;;;;;;;7.47;6.87;;;22.30;99.90;;;;;;5076144;28;20610;-76
2022/07/25 00:42:39;;;;;;;8.03;7.33;;;22.30;99.90;;;;;;5075891;28;20589;-76
2022/07/25 00:45:06;;;;;;;8.23;7.63;;;22.30;99.90;;;;;;5074318;28;20618;-76
2022/07/25 00:47:32;;;;;;;7.37;6.77;;;22.30;99.90;;;;;;5075374;28;20606;-77
2022/07/25 00:49:58;;;;;;;7.70;6.87;;;22.20;99.90;;;;;;5075336;28;20614;-77
2022/07/25 00:52:25;;;;;;;8.07;7.30;;;22.20;99.90;;;;;;5075486;28;20578;-76
2022/07/25 00:54:52;;;;;;;8.10;7.40;;;22.10;99.90;;;;;;5075412;28;20597;-77
2022/07/25 00:57:18;;;;;;;8.60;7.80;;;22.10;99.90;;;;;;5075410;28;20673;-76
2022/07/25 00:59:45;;;;;;;7.73;7.00;;;22.10;99.90;;;;;;5074145;28;20618;-76
2022/07/25 01:02:11;;;;;;;8.20;7.43;;;22.00;99.90;;;;;;5075413;28;20578;-76
2022/07/25 01:04:38;;;;;;;7.53;7.03;;;21.90;99.90;;;;;;5075021;28;21165;-76
2022/07/25 01:07:04;;;;;;;7.10;6.60;;;21.70;99.90;;;;;;5075440;28;20577;-76
2022/07/25 01:09:31;;;;;;;8.13;7.43;;;21.60;99.90;;;;;;5074961;28;21100;-77
2022/07/25 01:11:58;;;;;;;8.23;7.63;;;21.60;99.90;;;;;;5075232;28;20606;-76
2022/07/25 01:14:24;;;;;;;7.20;6.57;;;21.60;99.90;;;;;;5075460;28;20582;-76
2022/07/25 01:16:50;;;;;;;6.90;6.40;;;21.70;99.90;;;;;;5075120;28;20628;-77
2022/07/25 01:19:17;;;;;;;8.63;8.03;;;21.70;99.90;;;;;;5073522;28;20976;-77
2022/07/25 01:21:43;;;;;;;8.63;7.00;;;21.60;99.90;;;;;;5075106;28;21194;-76
2022/07/25 01:24:10;;;;;;;7.97;7.37;;;21.50;99.90;;;;;;5074855;28;20991;-76
2022/07/25 01:26:37;;;;;;;7.60;7.10;;;21.30;99.90;;;;;;5074915;28;20614;-76
2022/07/25 01:29:04;;;;;;;7.93;7.33;;;21.10;99.90;;;;;;5073490;28;20636;-76
2022/07/25 01:31:31;;;;;;;7.80;7.20;;;21.20;99.90;;;;;;5074890;28;20622;-77
2022/07/25 01:33:57;;;;;;;8.27;7.47;;;21.20;99.90;;;;;;5075007;28;20578;-77
2022/07/25 01:36:24;;;;;;;9.60;7.67;;;21.20;99.90;;;;;;5074887;28;20613;-77
2022/07/25 01:38:51;;;;;;;8.93;8.13;;;21.10;99.90;;;;;;5074631;28;20661;-76
2022/07/25 01:41:17;;;;;;;7.90;7.30;;;20.90;99.90;;;;;;5074831;28;20632;-76
2022/07/25 01:43:43;;;;;;;7.83;7.03;;;20.80;99.90;;;;;;5074675;28;20582;-76
2022/07/25 01:46:10;;;;;;;7.23;6.70;;;20.80;99.90;;;;;;5074149;28;20618;-76
2022/07/25 01:48:36;;;;;;;8.37;7.60;;;20.70;99.90;;;;;;5074484;28;20582;-76
2022/07/25 01:51:03;;;;;;;11.40;7.43;;;20.50;99.90;;;;;;5074360;28;21116;-76
2022/07/25 01:53:30;;;;;;;7.87;7.17;;;20.50;99.90;;;;;;5074283;28;20819;-76
2022/07/25 01:55:56;;;;;;;8.33;7.73;;;20.50;99.90;;;;;;5074321;28;20976;-77
2022/07/25 01:58:23;;;;;;;8.60;7.83;;;20.40;99.90;;;;;;5074570;28;20669;-76
2022/07/25 02:00:49;;;;;;;8.97;8.07;;;20.50;99.90;;;;;;5073342;28;20575;-76
2022/07/25 02:03:30;;;;;;;8.30;7.60;;;20.60;99.90;;;;;;5073121;28;20574;-77
2022/07/25 02:06:02;;;;;;;8.10;7.40;;;20.40;99.90;;;;;;5074047;28;21023;-77
2022/07/25 02:08:29;;;;;;;7.97;7.17;;;20.20;99.90;;;;;;5074241;28;20561;-77
2022/07/25 02:10:56;;;;;;;8.37;7.57;;;20.00;99.90;;;;;;5074106;28;20977;-76
2022/07/25 02:13:24;;;;;;;8.60;7.90;;;19.80;99.90;;;;;;5073766;28;21146;-76
2022/07/25 02:15:51;;;;;;;8.30;7.70;;;19.60;99.90;;;;;;5073911;28;20975;-76
2022/07/25 02:18:17;;;;;;;9.73;9.03;;;19.60;99.90;;;;;;5073438;28;20696;-76
2022/07/25 02:20:44;;;;;;;8.80;8.10;;;19.70;99.90;;;;;;5073500;28;21097;-76
2022/07/25 02:23:10;;;;;;;8.37;7.77;;;19.90;99.90;;;;;;5073524;28;21117;-76
2022/07/25 02:25:37;;;;;;;8.30;7.60;;;19.90;99.90;;;;;;5073515;28;20626;-76
2022/07/25 02:28:04;;;;;;;9.50;8.63;;;19.90;99.90;;;;;;5072864;28;21116;-76
2022/07/25 02:30:30;;;;;;;9.23;8.43;;;20.00;99.90;;;;;;5073663;28;20622;-77
2022/07/25 02:32:57;;;;;;;8.20;7.60;;;20.00;99.90;;;;;;5073498;28;20679;-76
2022/07/25 02:35:24;;;;;;;8.63;8.03;;;20.10;99.90;;;;;;5073546;28;20966;-76
2022/07/25 02:37:50;;;;;;;8.33;7.63;;;20.10;99.90;;;;;;5073487;28;20634;-76
2022/07/25 02:40:17;;;;;;;8.23;7.63;;;20.00;99.90;;;;;;5055331;28;20979;-76
2022/07/25 02:42:43;;;;;;;9.40;7.90;;;19.90;99.90;;;;;;5073430;28;20581;-77
2022/07/25 02:45:10;;;;;;;8.97;8.10;;;19.80;99.90;;;;;;5073096;28;21120;-76
2022/07/25 02:47:37;;;;;;;9.57;8.73;;;19.50;99.90;;;;;;5073396;28;20582;-77
2022/07/25 02:50:04;;;;;;;8.50;7.70;;;19.30;99.90;;;;;;5072883;28;20973;-76
2022/07/25 02:52:31;;;;;;;8.60;8.00;;;19.10;99.90;;;;;;5073307;28;20655;-77
2022/07/25 02:54:58;;;;;;;8.80;8.10;;;18.90;99.90;;;;;;5072427;28;21161;-76
2022/07/25 02:57:24;;;;;;;9.63;8.73;;;18.90;99.90;;;;;;5072880;28;20574;-76
2022/07/25 02:59:50;;;;;;;8.70;7.97;;;18.90;99.90;;;;;;5073140;28;20571;-76
2022/07/25 03:02:17;;;;;;;9.60;8.80;;;19.10;99.90;;;;;;5071647;28;21121;-76
2022/07/25 03:04:43;;;;;;;10.00;9.20;;;19.10;99.90;;;;;;5072523;28;20638;-76
2022/07/25 03:07:10;;;;;;;9.27;8.43;;;19.10;99.90;;;;;;5072912;28;20574;-76
2022/07/25 03:09:36;;;;;;;9.57;8.87;;;18.90;99.90;;;;;;5072975;28;20570;-77
2022/07/25 03:12:03;;;;;;;9.47;8.53;;;18.80;99.90;;;;;;5073038;28;20610;-77
2022/07/25 03:14:29;;;;;;;9.80;8.70;;;18.80;99.90;;;;;;5073105;28;20571;-76
2022/07/25 03:16:55;;;;;;;8.83;7.90;;;19.00;99.90;;;;;;5073143;28;20571;-76
2022/07/25 03:19:22;;;;;;;10.00;9.20;;;19.00;99.90;;;;;;5072443;28;20687;-76
2022/07/25 03:21:48;;;;;;;9.83;8.90;;;19.00;99.90;;;;;;5072928;28;20579;-76
2022/07/25 03:24:14;;;;;;;8.90;8.30;;;18.70;99.90;;;;;;5072443;28;21228;-77
2022/07/25 03:26:40;;;;;;;9.97;9.03;;;18.70;99.90;;;;;;5073038;28;20898;-76
2022/07/25 03:29:07;;;;;;;9.13;8.43;;;18.70;99.90;;;;;;5072567;28;21050;-76
2022/07/25 03:31:33;;;;;;;11.23;9.37;;;18.90;99.90;;;;;;5072261;28;20573;-76
2022/07/25 03:34:00;;;;;;;9.60;8.80;;;19.00;99.90;;;;;;5072183;28;21145;-77
2022/07/25 03:36:26;;;;;;;8.93;8.23;;;18.90;99.90;;;;;;5072725;28;20558;-76
2022/07/25 03:38:54;;;;;;;11.33;9.63;;;18.80;99.90;;;;;;5071209;28;21013;-76
2022/07/25 03:41:21;;;;;;;9.53;8.73;;;18.70;99.90;;;;;;5072612;28;21153;-76
2022/07/25 03:43:47;;;;;;;11.40;10.30;;;18.50;99.90;;;;;;5072202;28;20594;-76
2022/07/25 03:46:14;;;;;;;10.10;9.10;;;18.50;99.90;;;;;;5072361;28;20571;-76
2022/07/25 03:48:40;;;;;;;9.77;8.80;;;18.60;99.90;;;;;;5071000;28;20581;-77
2022/07/25 03:51:07;;;;;;;9.00;8.20;;;18.60;99.90;;;;;;5072303;28;20575;-76
2022/07/25 03:54:00;;;;;;;9.43;8.63;;;18.70;99.90;;;;;;5071027;28;20617;-76
2022/07/25 03:56:21;;;;;;;10.33;9.13;;;18.80;99.90;;;;;;5072306;28;20640;-76
2022/07/25 03:58:47;;;;;;;9.83;8.27;;;18.80;99.90;;;;;;5072279;28;20699;-76
2022/07/25 04:01:13;;;;;;;8.70;8.00;;;18.70;99.90;;;;;;5072329;28;20614;-77
2022/07/25 04:03:40;;;;;;;9.60;8.80;;;18.60;99.90;;;;;;5070753;28;20614;-76
2022/07/25 04:06:06;;;;;;;10.63;9.80;;;18.60;99.90;;;;;;5072038;28;20664;-76
2022/07/25 04:08:33;;;;;;;10.17;9.33;;;18.70;99.90;;;;;;5072426;28;20951;-76
2022/07/25 04:10:59;;;;;;;8.70;8.00;;;18.70;99.90;;;;;;5072363;28;20655;-76
2022/07/25 04:13:26;;;;;;;9.57;8.43;;;18.80;99.90;;;;;;5072122;28;20579;-76
2022/07/25 04:15:52;;;;;;;10.17;9.27;;;18.80;99.90;;;;;;5072612;28;20631;-76
2022/07/25 04:18:18;;;;;;;9.13;8.37;;;18.80;99.90;;;;;;5072290;28;20637;-76
2022/07/25 04:20:45;;;;;;;10.50;9.47;;;18.80;99.90;;;;;;5070548;28;20693;-76
2022/07/25 04:23:11;;;;;;;11.33;10.13;;;18.90;99.90;;;;;;5072133;28;20655;-77
2022/07/25 04:25:38;;;;;;;11.90;8.93;;;18.80;99.90;;;;;;5072276;28;20571;-76
2022/07/25 04:28:04;;;;;;;9.03;8.13;;;18.80;99.90;;;;;;5072030;28;20626;-76
2022/07/25 04:30:31;;;;;;;10.37;9.47;;;18.80;99.90;;;;;;5072273;28;20587;-76
2022/07/25 04:32:57;;;;;;;10.27;8.80;;;18.70;99.90;;;;;;5073392;28;20621;-74
2022/07/25 04:35:24;;;;;;;9.27;8.37;;;18.80;99.90;;;;;;5072076;28;20618;-73
2022/07/25 04:37:50;;;;;;;11.07;9.30;;;18.90;99.90;;;;;;5072313;28;21036;-73
2022/07/25 04:40:17;;;;;;;9.10;8.40;;;19.00;99.90;;;;;;5072278;28;20575;-73
2022/07/25 04:42:43;;;;;;;8.93;8.20;;;19.00;99.90;;;;;;5072376;28;20611;-73
2022/07/25 04:45:10;;;;;;;8.90;8.20;;;19.10;99.90;;;;;;5072663;28;20573;-73
2022/07/25 04:47:36;;;;;;;10.90;9.77;;;19.30;99.90;;;;;;5071827;28;20582;-74
2022/07/25 04:50:03;;;;;;;9.67;8.77;;;19.20;99.90;;;;;;5072880;28;20635;-73
2022/07/25 04:52:30;;;;;;;10.00;9.20;;;19.20;99.90;;;;;;5076074;28;20574;-73
2022/07/25 04:54:56;;;;;;;9.87;9.17;;;19.30;99.90;;;;;;5074326;28;20654;-73
2022/07/25 04:57:22;;;;;;;11.57;10.13;;;19.30;99.90;;;;;;5075430;28;21175;-73
2022/07/25 04:59:49;;;;;;;10.53;8.30;;;19.40;99.90;;;;;;5074399;28;20642;-73
2022/07/25 05:02:15;;;;;;;11.13;10.00;;;19.50;99.90;;;;;;5075325;28;20582;-73
2022/07/25 05:04:42;;;;;;;10.60;9.60;;;19.60;99.90;;;;;;5075500;28;20668;-73
2022/07/25 05:07:08;;;;;;;10.60;9.70;;;19.50;99.90;;;;;;5075195;28;20578;-73
2022/07/25 05:09:34;;;;;;;10.20;9.30;;;19.50;99.90;;;;;;5075602;28;20593;-73
2022/07/25 05:12:01;;;;;;;9.43;8.73;;;19.60;99.90;;;;;;5075447;28;20697;-73
2022/07/25 05:14:27;;;;;;;10.07;9.20;;;19.70;99.90;;;;;;5073908;28;21208;-73
2022/07/25 05:16:54;;;;;;;11.73;10.63;;;19.90;99.90;;;;;;5073830;28;21168;-74
2022/07/25 05:19:20;;;;;;;9.90;9.10;;;19.90;99.90;;;;;;5075010;28;21039;-73
2022/07/25 05:21:47;;;;;;;9.53;8.83;;;19.80;99.90;;;;;;5075358;28;20575;-73
2022/07/25 05:24:13;;;;;;;10.50;8.63;;;20.00;99.90;;;;;;5074981;28;21043;-73
2022/07/25 05:26:39;;;;;;;16.00;8.43;;;20.30;99.90;;;;;;5075217;28;20924;-73
2022/07/25 05:29:06;;;;;;;10.67;9.67;;;20.40;99.90;;;;;;5074954;28;20634;-73
2022/07/25 05:31:32;;;;;;;10.70;9.13;;;20.50;99.90;;;;;;5074867;28;20551;-73
2022/07/25 05:33:59;;;;;;;10.13;9.43;;;20.50;99.90;;;;;;5075104;28;20555;-73
2022/07/25 05:36:25;;;;;;;11.50;9.40;;;20.70;99.90;;;;;;5075023;28;20622;-73
2022/07/25 05:38:52;;;;;;;12.40;11.30;;;20.80;99.90;;;;;;5074927;28;20630;-73
2022/07/25 05:41:20;;;;;;;11.50;10.30;;;21.00;99.90;;;;;;5073347;28;20969;-74
2022/07/25 05:43:47;;;;;;;10.97;9.97;;;21.10;99.90;;;;;;5074419;28;20590;-74
2022/07/25 05:46:14;;;;;;;10.63;9.80;;;21.10;99.90;;;;;;5074843;28;20621;-74
2022/07/25 05:48:41;;;;;;;11.03;9.97;;;21.10;99.90;;;;;;5074425;28;20621;-73
2022/07/25 05:51:08;;;;;;;10.63;9.53;;;21.30;99.90;;;;;;5074840;28;20579;-73
2022/07/25 05:53:35;;;;;;;11.20;10.20;;;21.40;99.90;;;;;;5074457;28;20582;-73
2022/07/25 05:56:02;;;;;;;11.60;10.50;;;21.20;99.90;;;;;;5074350;28;20579;-73
2022/07/25 05:58:28;;;;;;;11.80;10.60;;;21.20;99.90;;;;;;5074352;28;20625;-73
2022/07/25 06:00:55;;;;;;;11.47;10.50;;;21.30;99.90;;;;;;5072747;28;20621;-73
2022/07/25 06:03:22;;;;;;;11.70;10.60;;;21.40;99.90;;;;;;5073430;28;20639;-73
2022/07/25 06:05:48;;;;;;;12.63;11.30;;;21.60;99.90;;;;;;5073930;28;20654;-73
2022/07/25 06:08:15;;;;;;;11.20;10.30;;;21.70;99.90;;;;;;5074533;28;20604;-73
2022/07/25 06:10:42;;;;;;;11.80;10.87;;;21.80;99.90;;;;;;5074162;28;20591;-73
2022/07/25 06:13:08;;;;;;;11.80;10.67;;;22.00;99.90;;;;;;5073974;28;21233;-74
2022/07/25 06:15:35;;;;;;;11.40;10.40;;;22.10;99.90;;;;;;5074271;28;21035;-73
2022/07/25 06:18:01;;;;;;;11.07;10.23;;;22.20;99.90;;;;;;5074294;28;21172;-73
2022/07/25 06:20:28;;;;;;;11.53;10.40;;;22.40;99.90;;;;;;5074388;28;20634;-73
2022/07/25 06:22:54;;;;;;;11.60;10.70;;;22.40;99.90;;;;;;5074063;28;20621;-73
2022/07/25 06:25:21;;;;;;;11.13;10.00;;;22.30;99.90;;;;;;5072681;28;20634;-73
2022/07/25 06:27:47;;;;;;;10.17;9.47;;;22.40;99.90;;;;;;5074136;28;20678;-73
2022/07/25 06:30:14;;;;;;;10.93;10.03;;;22.60;99.90;;;;;;5072806;28;20578;-74
2022/07/25 06:32:40;;;;;;;11.73;10.53;;;22.70;99.90;;;;;;5073945;28;20660;-73
2022/07/25 06:35:07;;;;;;;11.33;10.40;;;22.90;99.90;;;;;;5073876;28;20586;-73
2022/07/25 06:37:37;;;;;;;9.77;9.00;;;23.00;99.90;;;;;;5072322;28;20656;-74
2022/07/25 06:40:03;;;;;;;10.87;9.67;;;23.00;99.90;;;;;;5073712;28;20657;-73
2022/07/25 06:42:32;;;;;;;10.70;9.90;;;23.20;99.90;;;;;;5074000;28;20567;-73
2022/07/25 06:45:01;;;;;;;12.87;10.20;;;23.20;99.90;;;;;;5073551;28;21033;-73
2022/07/25 06:47:28;;;;;;;11.20;10.17;;;23.20;99.90;;;;;;5073820;28;20602;-73
2022/07/25 06:49:54;;;;;;;11.23;10.33;;;23.40;99.90;;;;;;5073770;28;20600;-73
2022/07/25 06:52:21;;;;;;;10.93;10.13;;;23.60;99.90;;;;;;5073738;28;21248;-73
2022/07/25 06:54:47;;;;;;;13.20;10.50;;;23.70;99.90;;;;;;5073555;28;20586;-73
2022/07/25 06:57:14;;;;;;;12.93;10.80;;;23.70;99.90;;;;;;5073114;28;20615;-73
2022/07/25 06:59:40;;;;;;;10.80;10.00;;;23.80;99.90;;;;;;5073541;28;20668;-73
2022/07/25 07:02:07;;;;;;;10.23;9.43;;;24.00;99.90;;;;;;5073163;28;20610;-74
2022/07/25 07:04:33;;;;;;;10.90;10.00;;;24.10;99.90;;;;;;5073431;28;20642;-73
2022/07/25 07:07:00;;;;;;;10.10;9.20;;;24.10;99.90;;;;;;5073705;28;20575;-73
2022/07/25 07:09:26;;;;;;;11.03;10.23;;;24.10;99.90;;;;;;5073662;28;20581;-73
2022/07/25 07:11:52;;;;;;;11.23;10.17;;;24.30;99.90;;;;;;5073533;28;20578;-73
2022/07/25 07:14:19;;;;;;;10.50;9.70;;;24.60;99.90;;;;;;5072995;28;20648;-73
2022/07/25 07:16:45;;;;;;;10.27;9.53;;;24.90;99.90;;;;;;5073359;28;20599;-73
2022/07/25 07:19:13;;;;;;;9.30;8.60;;;25.10;99.90;;;;;;5073140;28;20669;-73
2022/07/25 07:21:41;;;;;;;9.47;8.70;;;25.20;99.90;;;;;;5073276;28;20631;-73
2022/07/25 07:24:08;;;;;;;9.00;8.37;;;25.30;99.90;;;;;;5072901;28;20645;-73
2022/07/25 07:26:34;;;;;;;9.80;9.10;;;25.30;99.90;;;;;;5073252;28;20588;-73
2022/07/25 07:29:04;;;;;;;9.50;8.90;;;25.40;99.90;;;;;;5072842;28;20581;-73
2022/07/25 07:31:30;;;;;;;10.07;9.20;;;25.40;99.90;;;;;;5072945;28;20613;-73
2022/07/25 07:33:58;;;;;;;9.77;8.83;;;25.50;99.90;;;;;;5073445;28;20664;-73
2022/07/25 07:36:24;;;;;;;12.10;9.50;;;25.70;99.90;;;;;;5073213;28;20626;-73
2022/07/25 07:38:51;;;;;;;10.70;9.70;;;25.70;99.90;;;;;;5072900;28;20666;-74
2022/07/25 07:41:18;;;;;;;13.40;8.60;;;25.80;99.90;;;;;;5073254;28;20618;-73
2022/07/25 07:43:45;;;;;;;10.23;9.33;;;26.00;99.90;;;;;;5071880;28;20659;-74
2022/07/25 07:46:11;;;;;;;9.60;8.70;;;26.10;99.90;;;;;;5072770;28;20752;-74
2022/07/25 07:48:38;;;;;;;9.93;9.17;;;26.20;99.90;;;;;;5072370;28;20704;-73
2022/07/25 07:51:05;;;;;;;11.50;8.50;;;26.30;99.90;;;;;;5072929;28;20602;-72
2022/07/25 07:56:18;;;;;;;10.93;8.70;;;26.60;99.90;;;;;;5072812;28;20578;-72
2022/07/25 07:58:44;;;;;;;9.80;8.90;;;26.80;99.90;;;;;;5072682;28;20702;-72
2022/07/25 08:01:11;;;;;;;10.13;9.13;;;27.00;99.90;;;;;;5072710;28;20980;-72
2022/07/25 08:03:37;;;;;;;10.20;9.30;;;27.00;99.90;;;;;;5072561;28;21020;-72
2022/07/25 08:06:04;;;;;;;10.40;9.60;;;27.00;99.90;;;;;;5072366;28;21212;-72
2022/07/25 08:08:31;;;;;;;10.47;9.57;;;27.10;99.90;;;;;;5071021;28;21124;-70
2022/07/25 08:10:57;;;;;;;10.00;9.30;;;27.40;99.90;;;;;;5072799;28;20582;-71
2022/07/25 08:13:28;;;;;;;11.03;8.90;;;27.30;99.90;;;;;;5072608;28;20638;-71
2022/07/25 08:15:56;;;;;;;10.63;9.60;;;27.40;99.90;;;;;;5072451;28;20559;-70
2022/07/25 08:18:24;;;;;;;9.80;9.00;;;27.30;99.90;;;;;;5072342;28;20629;-70
2022/07/25 08:20:51;;;;;;;11.87;10.60;;;27.40;99.90;;;;;;5072750;28;20973;-71
2022/07/25 08:23:18;;;;;;;10.07;9.03;;;27.60;99.90;;;;;;5072410;28;20619;-71
2022/07/25 08:25:45;;;;;;;11.10;10.10;;;27.70;99.90;;;;;;5074200;28;20618;-70
2022/07/25 08:28:13;;;;;;;9.50;8.53;;;27.70;99.90;;;;;;5076450;28;20590;-71
2022/07/25 08:30:40;;;;;;;16.13;9.83;;;28.00;99.90;;;;;;5076113;28;20585;-70
2022/07/25 08:33:09;;;;;;;10.17;9.27;;;28.10;99.90;;;;;;5076693;28;20618;-70
2022/07/25 08:35:36;;;;;;;10.17;9.00;;;28.30;99.90;;;;;;5075808;28;20630;-70
2022/07/25 08:38:03;;;;;;;10.87;9.87;;;28.40;99.90;;;;;;5075874;28;20601;-70
2022/07/25 08:40:31;;;;;;;14.13;10.40;;;28.30;99.90;;;;;;5076155;28;20625;-70
2022/07/25 08:42:58;;;;;;;10.67;9.67;;;28.90;99.90;;;;;;5076546;28;20672;-70
2022/07/25 08:45:26;;;;;;;10.70;9.70;;;28.80;99.90;;;;;;5076018;28;20614;-70
2022/07/25 08:47:54;;;;;;;11.33;10.53;;;28.90;99.90;;;;;;5076171;28;20664;-71
2022/07/25 08:50:24;;;;;;;10.43;9.73;;;28.90;99.90;;;;;;5076186;28;20966;-70
2022/07/25 08:52:51;;;;;;;11.93;10.77;;;29.00;99.90;;;;;;5075763;28;20980;-70
2022/07/25 08:55:22;;;;;;;10.60;9.90;;;29.10;99.90;;;;;;5075644;28;20624;-70
2022/07/25 08:57:51;;;;;;;10.70;9.60;;;28.90;99.90;;;;;;5075956;28;20589;-71
2022/07/25 09:00:27;;;;;;;11.17;10.47;;;29.30;99.90;;;;;;5075862;28;20637;-71
2022/07/25 09:02:56;;;;;;;11.00;10.00;;;29.40;99.90;;;;;;5074512;28;20622;-71
2022/07/25 09:05:23;;;;;;;10.77;9.87;;;29.60;99.90;;;;;;5075250;28;21215;-70
2022/07/25 09:07:51;;;;;;;12.20;11.13;;;29.80;99.90;;;;;;5075720;28;20606;-71
2022/07/25 09:10:19;;;;;;;10.50;9.60;;;29.90;99.90;;;;;;5075473;28;20583;-71
2022/07/25 09:12:57;;;;;;;11.43;10.50;;;29.70;99.90;;;;;;5075415;28;20578;-71
2022/07/25 09:15:28;;;;;;;10.60;9.70;;;29.90;99.90;;;;;;5075669;28;20574;-71
2022/07/25 09:17:56;;;;;;;10.50;9.57;;;30.10;99.90;;;;;;5075894;28;21010;-71
2022/07/25 09:20:23;;;;;;;11.10;10.00;;;30.20;99.90;;;;;;5075242;28;21035;-70
2022/07/25 09:22:50;;;;;;;10.83;9.90;;;30.30;99.90;;;;;;5075122;28;20606;-71
2022/07/25 09:25:22;;;;;;;10.97;10.17;;;30.30;99.90;;;;;;5075376;28;20756;-70
2022/07/25 09:27:48;;;;;;;10.67;9.97;;;30.00;99.90;;;;;;5075704;28;20637;-71
2022/07/25 09:30:15;;;;;;;10.20;9.30;;;30.40;99.90;;;;;;5075052;28;21183;-70
2022/07/25 09:32:42;;;;;;;10.70;9.90;;;30.50;99.90;;;;;;5075043;28;21145;-70
2022/07/25 09:35:09;;;;;;;10.53;9.83;;;30.50;99.90;;;;;;5074904;28;20614;-70
2022/07/25 09:37:35;;;;;;;10.13;9.37;;;30.50;99.90;;;;;;5074830;28;20636;-71
2022/07/25 09:40:13;;;;;;;11.30;10.47;;;30.40;99.90;;;;;;5074864;28;20649;-70
2022/07/25 09:42:41;;;;;;;10.50;9.80;;;30.60;99.90;;;;;;5075339;28;21148;-70
2022/07/25 09:45:13;;;;;;;11.50;10.60;;;30.60;99.90;;;;;;5074802;28;20575;-71
2022/07/25 09:47:57;;;;;;;10.40;9.67;;;30.80;99.90;;;;;;5074895;28;21187;-72
2022/07/25 09:50:25;;;;;;;11.07;10.17;;;30.90;99.90;;;;;;5075062;28;21029;-71
2022/07/25 09:52:53;;;;;;;11.50;10.37;;;30.70;99.90;;;;;;5074606;28;20749;-72
2022/07/25 09:55:23;;;;;;;11.63;10.73;;;31.00;99.90;;;;;;5074792;28;20601;-71
2022/07/25 09:57:51;;;;;;;11.47;10.37;;;31.30;99.90;;;;;;5074977;28;20574;-71
2022/07/25 10:00:24;;;;;;;10.77;10.00;;;31.30;99.90;;;;;;5074732;28;21018;-72
2022/07/25 10:02:54;;;;;;;11.53;9.47;;;31.10;99.90;;;;;;5074585;28;20644;-71
2022/07/25 10:05:50;;;;;;;10.40;9.50;;;31.10;99.90;;;;;;5074522;28;21007;-72
2022/07/25 10:08:19;;;;;;;11.10;10.20;;;31.00;99.90;;;;;;5074455;28;21047;-76
2022/07/25 10:10:46;;;;;;;10.30;9.50;;;31.20;99.90;;;;;;5074457;28;21114;-72
2022/07/25 10:13:28;;;;;;;10.53;9.60;;;31.30;99.90;;;;;;5074412;28;20574;-72
2022/07/25 10:15:55;;;;;;;11.30;10.60;;;31.30;99.90;;;;;;5075071;28;20574;-72
2022/07/25 10:18:24;;;;;;;11.20;10.40;;;31.20;99.90;;;;;;5074175;28;20618;-70
2022/07/25 10:20:53;;;;;;;11.57;10.77;;;31.10;99.90;;;;;;5074340;28;20746;-70
2022/07/25 10:23:25;;;;;;;11.20;10.23;;;31.30;99.90;;;;;;5074092;28;21105;-70
2022/07/25 10:26:18;;;;;;;11.37;10.57;;;31.50;99.90;;;;;;5074308;28;21170;-70
2022/07/25 10:28:51;;;;;;;11.50;10.43;;;31.80;99.90;;;;;;5074389;28;20610;-70
2022/07/25 10:31:23;;;;;;;10.83;9.90;;;32.20;99.90;;;;;;5073813;28;20644;-71
2022/07/25 10:34:01;;;;;;;11.07;10.00;;;32.50;99.90;;;;;;5073969;28;20591;-71
2022/07/25 10:36:44;;;;;;;10.93;10.13;;;32.40;99.90;;;;;;5073939;28;20625;-71
2022/07/25 10:39:13;;;;;;;10.50;9.70;;;32.70;99.90;;;;;;5073708;28;20974;-70
2022/07/25 10:41:42;;;;;;;9.70;8.77;;;32.60;99.90;;;;;;5073938;28;20579;-71
2022/07/25 10:44:14;;;;;;;10.77;9.80;;;32.80;99.90;;;;;;5073628;28;20610;-71
2022/07/25 10:46:45;;;;;;;11.47;10.30;;;32.90;99.90;;;;;;5073781;28;21101;-70
2022/07/25 10:49:18;;;;;;;10.43;9.60;;;32.50;99.90;;;;;;5073696;28;20638;-70
2022/07/25 10:51:55;;;;;;;10.17;9.23;;;33.00;99.90;;;;;;5073509;28;20582;-70
2022/07/25 10:54:22;;;;;;;9.90;9.20;;;33.20;99.90;;;;;;5073409;28;20946;-71
2022/07/25 10:56:57;;;;;;;11.77;10.77;;;32.90;99.90;;;;;;5073766;28;20618;-70
2022/07/25 10:59:38;;;;;;;10.50;9.67;;;32.70;99.90;;;;;;5073338;28;20692;-70
2022/07/25 11:02:08;;;;;;;9.97;8.97;;;32.70;99.90;;;;;;5073619;28;20939;-70
2022/07/25 11:04:35;;;;;;;9.90;9.20;;;33.10;99.90;;;;;;5073565;28;20654;-70
2022/07/25 11:07:09;;;;;;;10.37;9.67;;;33.40;99.90;;;;;;5073692;28;20567;-71
2022/07/25 11:09:36;;;;;;;11.50;10.50;;;32.90;99.90;;;;;;5074001;28;20954;-71
2022/07/25 11:12:03;;;;;;;10.30;9.43;;;33.10;99.90;;;;;;5073635;28;20614;-70
2022/07/25 11:14:40;;;;;;;10.70;9.60;;;33.20;99.90;;;;;;5073386;28;21092;-70
2022/07/25 11:17:10;;;;;;;9.90;9.00;;;33.10;99.90;;;;;;5073146;28;21173;-70
2022/07/25 11:19:37;;;;;;;11.03;10.20;;;33.20;99.90;;;;;;5073170;28;21000;-70
2022/07/25 11:22:03;;;;;;;11.87;9.90;;;33.30;99.90;;;;;;5073210;28;21021;-70
2022/07/25 11:24:39;;;;;;;10.20;9.27;;;32.90;99.90;;;;;;5072126;28;20635;-70
2022/07/25 11:27:06;;;;;;;9.97;9.17;;;32.80;99.90;;;;;;5073203;28;20601;-70
2022/07/25 11:29:33;;;;;;;9.63;9.03;;;33.30;99.90;;;;;;5073218;28;20586;-71
2022/07/25 11:32:02;;;;;;;10.17;9.37;;;34.00;99.90;;;;;;5072992;28;20587;-71
2022/07/25 11:34:31;;;;;;;10.20;9.40;;;34.80;99.90;;;;;;5073080;28;20591;-71
2022/07/25 11:37:00;;;;;;;10.40;9.70;;;34.20;99.90;;;;;;5071895;28;20975;-71
2022/07/25 11:39:28;;;;;;;9.77;9.10;;;34.20;99.90;;;;;;5072788;28;21204;-71
2022/07/25 11:42:16;;;;;;;10.57;9.67;;;34.40;99.90;;;;;;5073152;28;20676;-71
2022/07/25 11:44:50;;;;;;;9.73;9.03;;;34.70;99.90;;;;;;5072698;28;20820;-71
2022/07/25 11:47:31;;;;;;;11.17;10.00;;;34.40;99.90;;;;;;5073122;28;20627;-69
2022/07/25 11:50:00;;;;;;;11.00;9.83;;;34.40;99.90;;;;;;5073231;28;20593;-71
2022/07/25 11:52:31;;;;;;;11.30;8.50;;;34.40;99.90;;;;;;5072772;28;20613;-71
2022/07/25 11:55:04;;;;;;;9.97;9.17;;;34.40;99.90;;;;;;5071919;28;20588;-69
2022/07/25 11:57:34;;;;;;;8.37;7.87;;;34.10;99.90;;;;;;5072824;28;20579;-71
2022/07/25 12:00:04;;;;;;;8.43;7.90;;;33.80;99.90;;;;;;5073647;28;20666;-71
2022/07/25 12:02:33;;;;;;;9.50;8.90;;;34.00;99.90;;;;;;5076589;28;20968;-69
2022/07/25 12:05:06;;;;;;;10.00;9.20;;;34.50;99.90;;;;;;5075313;28;20677;-72
2022/07/25 12:07:50;;;;;;;8.83;8.30;;;34.60;99.90;;;;;;5076676;28;20637;-71
2022/07/25 12:10:21;;;;;;;9.47;8.83;;;34.20;99.90;;;;;;5077200;28;20981;-71
2022/07/25 12:12:51;;;;;;;8.50;8.00;;;34.20;99.90;;;;;;5076617;28;20628;-69
2022/07/25 12:15:21;;;;;;;9.07;8.47;;;34.70;99.90;;;;;;5076874;28;20578;-69
2022/07/25 12:17:50;;;;;;;9.60;8.80;;;35.30;99.90;;;;;;5076923;28;20675;-70
2022/07/25 12:20:20;;;;;;;9.83;9.23;;;35.30;99.90;;;;;;5076485;28;20630;-70
2022/07/25 12:22:48;;;;;;;9.80;8.27;;;35.70;99.90;;;;;;5076513;28;20602;-69
2022/07/25 12:25:15;;;;;;;8.87;8.20;;;35.80;99.90;;;;;;5076556;28;20640;-69
2022/07/25 12:27:41;;;;;;;9.07;8.47;;;35.70;99.90;;;;;;5076779;28;20614;-69
2022/07/25 12:30:09;;;;;;;9.20;8.70;;;35.00;99.90;;;;;;5075105;28;20634;-71
2022/07/25 12:32:36;;;;;;;8.80;8.30;;;34.90;99.90;;;;;;5076082;28;20668;-71
2022/07/25 12:35:05;;;;;;;9.47;8.70;;;34.80;99.90;;;;;;5076477;28;20583;-71
2022/07/25 12:37:31;;;;;;;9.77;9.00;;;35.40;99.90;;;;;;5076527;28;20578;-71
2022/07/25 12:39:58;;;;;;;8.60;8.10;;;36.10;99.90;;;;;;5076230;28;20634;-69
2022/07/25 12:42:26;;;;;;;8.27;7.83;;;35.70;99.90;;;;;;5076193;28;20587;-69
2022/07/25 12:44:52;;;;;;;8.67;7.97;;;34.60;99.90;;;;;;5075883;28;21149;-71
2022/07/25 12:47:19;;;;;;;9.50;8.70;;;34.40;99.90;;;;;;5076516;28;20582;-71